Aviation Digital Data Service (ADDS)

Output produced by METARs form (1533 UTC 17 November 2019)
found at http://aviationweather.gov/metar/data/
 
METAR text: KAVP 171454Z 05006KT 10SM CLR 01/M11 A3031 RMK AO2 SLP273 T00111106 58011 $
Conditions at: KAVP (AVOCA/WILKES B. , PA, US) observed 1454 UTC 17 November 2019
Temperature: 1.1°C (34°F)
Dewpoint: -10.6°C (13°F) [RH = 41%]
Pressure (altimeter): 30.31 inches Hg (1026.5 mb)
[Sea-level pressure: 1027.3 mb]
Winds: from the NE (50 degrees) at 7 MPH (6 knots; 3.1 m/s)
Visibility: 10 or more miles (16+ km)
Ceiling: at least 12,000 feet AGL
Clouds: sky clear below 12,000 feet AGL
Weather:
SOME DATA ABOVE MAY BE INACCURATE!!!
"$" is an indication the sensor requires maintenance

METAR text: KAVP 171354Z 04007KT 10SM OVC032 M02/M13 A3034 RMK AO2 SLP283 T10171133 $
Conditions at: KAVP (AVOCA/WILKES B. , PA, US) observed 1354 UTC 17 November 2019
Temperature: -1.7°C (29°F)
Dewpoint: -13.3°C ( 8°F) [RH = 41%]
Pressure (altimeter): 30.34 inches Hg (1027.5 mb)
[Sea-level pressure: 1028.3 mb]
Winds: from the NE (40 degrees) at 8 MPH (7 knots; 3.6 m/s)
Visibility: 10 or more miles (16+ km)
Ceiling: 3200 feet AGL
Clouds: overcast cloud deck at 3200 feet AGL
Weather:
SOME DATA ABOVE MAY BE INACCURATE!!!
"$" is an indication the sensor requires maintenance

Forecast for: KAVP (AVOCA/WILKES B. , PA, US)
Text: KAVP 171408Z 1714/1812 04007KT P6SM FEW025 OVC035
Forecast period: 1400 to 2000 UTC 17 November 2019
Forecast type: FROM: standard forecast or significant change
Winds: from the NE (40 degrees) at 8 MPH (7 knots; 3.6 m/s)
Visibility: 6 or more miles 10+ km)
Ceiling: 3500 feet AGL
Clouds: few clouds at 2500 feet AGL
overcast cloud deck at 3500 feet AGL
Weather: no significant weather forecast for this period
Text: FM172000 09005KT P6SM OVC030
Forecast period: 2000 UTC 17 November 2019 to 0600 UTC 18 November 2019
Forecast type: FROM: standard forecast or significant change
Winds: from the E (90 degrees) at 6 MPH (5 knots; 2.6 m/s)
Visibility: 6 or more miles 10+ km)
Ceiling: 3000 feet AGL
Clouds: overcast cloud deck at 3000 feet AGL
Weather: no significant weather forecast for this period
Text: FM180600 VRB03KT P6SM OVC020
Forecast period: 0600 to 1200 UTC 18 November 2019
Forecast type: FROM: standard forecast or significant change
Winds: variable direction winds at 3 MPH (3 knots; 1.5 m/s)
Visibility: 6 or more miles 10+ km)
Ceiling: 2000 feet AGL
Clouds: overcast cloud deck at 2000 feet AGL
Weather: no significant weather forecast for this period